createdAt,value
2023-03-20T00:02:21.372Z,94706.78
2023-03-20T00:07:23.401Z,94714.59
2023-03-20T00:12:28.563Z,94724.31
2023-03-20T00:17:30.718Z,94718.81
2023-03-20T00:22:33.055Z,94706.03
2023-03-20T00:27:35.156Z,94714.97
2023-03-20T00:32:37.203Z,94717.13
2023-03-20T00:37:39.261Z,94723.50
2023-03-20T00:42:41.543Z,94716.41
2023-03-20T00:47:44.043Z,94710.69
2023-03-20T00:52:46.056Z,94716.16
2023-03-20T00:57:56.478Z,94718.47
2023-03-20T01:02:59.200Z,94714.47
2023-03-20T01:08:01.502Z,94716.94
2023-03-20T01:13:04.150Z,94711.25
2023-03-20T01:18:06.287Z,94708.22
2023-03-20T01:23:08.931Z,94702.81
2023-03-20T01:28:22.928Z,94721.16
2023-03-20T01:33:26.787Z,94721.25
2023-03-20T01:38:30.852Z,94717.06
2023-03-20T01:43:35.958Z,94722.78
2023-03-20T01:48:50.252Z,94725.94
2023-03-20T01:53:59.133Z,94715.38
2023-03-20T01:59:05.853Z,94710.97
2023-03-20T02:04:09.428Z,94701.69
2023-03-20T02:09:26.832Z,94703.97
2023-03-20T02:14:30.242Z,94704.09
2023-03-20T02:19:59.295Z,94695.47
2023-03-20T02:25:28.001Z,94698.53
2023-03-20T02:31:02.104Z,94701.69
2023-03-20T02:36:08.237Z,94693.41
2023-03-20T02:41:31.789Z,94698.53
2023-03-20T02:46:46.968Z,94709.75
2023-03-20T02:51:58.608Z,94699.03
2023-03-20T02:57:07.161Z,94692.91
2023-03-20T03:02:14.333Z,94695.09
2023-03-20T03:07:18.690Z,94695.09
2023-03-20T03:12:23.467Z,94675.22
2023-03-20T03:17:27.850Z,94675.97
2023-03-20T03:22:29.918Z,94684.06
2023-03-20T03:27:37.858Z,94683.50
2023-03-20T03:32:46.957Z,94673.59
2023-03-20T03:38:29.553Z,94678.59
2023-03-20T03:44:00.361Z,94669.53
2023-03-20T03:49:04.081Z,94650.22
2023-03-20T03:54:28.376Z,94679.06
2023-03-20T03:59:53.513Z,94669.59
2023-03-20T04:04:55.870Z,94663.41
2023-03-20T04:09:57.887Z,94661.97
2023-03-20T04:15:02.881Z,94666.91
2023-03-20T04:20:08.413Z,94670.63
2023-03-20T04:25:20.286Z,94674.97
2023-03-20T04:30:23.984Z,94663.63
2023-03-20T04:35:48.870Z,94660.19
2023-03-20T04:40:52.470Z,94661.94
2023-03-20T04:45:55.087Z,94668.41
2023-03-20T04:50:58.235Z,94673.22
2023-03-20T04:56:12.163Z,94665.13
2023-03-20T05:01:14.760Z,94672.78
2023-03-20T05:06:17.094Z,94672.78
2023-03-20T05:11:20.483Z,94644.63
2023-03-20T05:16:42.709Z,94659.63
2023-03-20T05:22:05.381Z,94663.41
2023-03-20T05:27:27.562Z,94669.38
2023-03-20T05:32:52.669Z,94668.16
2023-03-20T05:38:15.019Z,94673.16
2023-03-20T05:43:29.174Z,94674.81
2023-03-20T05:48:34.061Z,94671.44
2023-03-20T05:54:11.393Z,94669.72
2023-03-20T05:59:16.517Z,94652.88
2023-03-20T06:04:47.814Z,94670.31
2023-03-20T06:09:57.298Z,94666.06
2023-03-20T06:14:59.874Z,94666.91
2023-03-20T06:20:03.543Z,94678.94
2023-03-20T06:25:07.637Z,94676.59
2023-03-20T06:30:15.601Z,94680.59
2023-03-20T06:35:20.560Z,94685.44
2023-03-20T06:40:25.639Z,94684.94
2023-03-20T06:45:27.841Z,94679.50
2023-03-20T06:50:35.399Z,94673.75
2023-03-20T06:55:37.981Z,94685.59
2023-03-20T07:00:41.043Z,94673.50
2023-03-20T07:05:45.168Z,94695.50
2023-03-20T07:10:47.626Z,94692.78
2023-03-20T07:16:03.361Z,94684.69
2023-03-20T07:21:14.399Z,94688.84
2023-03-20T07:26:17.685Z,94688.00
2023-03-20T07:31:26.194Z,94688.44
2023-03-20T07:36:48.666Z,94703.59
2023-03-20T07:41:54.509Z,94690.19
2023-03-20T07:47:31.873Z,94709.75
2023-03-20T07:52:35.152Z,94703.03
2023-03-20T07:57:37.226Z,94703.38
2023-03-20T08:02:39.318Z,94701.03
2023-03-20T08:07:41.374Z,94699.41
2023-03-20T08:12:43.721Z,94710.66
2023-03-20T08:17:46.212Z,94712.78
2023-03-20T08:22:50.009Z,94715.38
2023-03-20T08:27:52.141Z,94706.91
2023-03-20T08:32:54.228Z,94713.69
2023-03-20T08:37:56.249Z,94702.53
2023-03-20T08:42:59.313Z,94710.44
2023-03-20T08:48:01.715Z,94716.41
2023-03-20T08:53:04.609Z,94716.59
2023-03-20T08:58:06.904Z,94720.47
2023-03-20T09:03:17.894Z,94719.22
2023-03-20T09:08:20.402Z,94707.06
2023-03-20T09:13:27.701Z,94715.94
2023-03-20T09:18:30.471Z,94708.69
2023-03-20T09:23:33.140Z,94704.94
2023-03-20T09:28:35.465Z,94700.91
2023-03-20T09:33:37.695Z,94694.00
2023-03-20T09:38:42.221Z,94689.53
2023-03-20T09:44:06.142Z,94687.00
2023-03-20T09:49:34.982Z,94683.50
2023-03-20T09:54:53.069Z,94681.31
2023-03-20T09:59:58.986Z,94672.03
2023-03-20T10:05:01.164Z,94677.59
2023-03-20T10:10:03.215Z,94671.88
2023-03-20T10:15:42.725Z,94671.66
2023-03-20T10:20:59.717Z,94651.09
2023-03-20T10:26:16.392Z,94665.44
2023-03-20T10:31:30.297Z,94656.59
2023-03-20T10:36:51.092Z,94658.06
2023-03-20T10:41:59.170Z,94641.06
2023-03-20T10:47:04.535Z,94638.84
2023-03-20T10:52:12.248Z,94637.69
2023-03-20T10:57:28.683Z,94633.59
2023-03-20T11:02:32.656Z,94630.50
2023-03-20T11:07:36.583Z,94616.97
2023-03-20T11:12:41.425Z,94625.25
2023-03-20T11:17:43.389Z,94627.25
2023-03-20T11:22:48.865Z,94619.72
2023-03-20T11:27:50.800Z,94617.34
2023-03-20T11:32:56.092Z,94612.88
2023-03-20T11:38:12.738Z,94598.91
2023-03-20T11:43:19.624Z,94600.88
2023-03-20T11:48:27.182Z,94591.69
2023-03-20T11:53:32.850Z,94592.88
2023-03-20T11:58:37.683Z,94582.28
2023-03-20T12:03:57.822Z,94578.50
2023-03-20T12:09:07.567Z,94571.47
2023-03-20T12:14:24.466Z,94571.81
2023-03-20T12:19:29.458Z,94561.69
2023-03-20T12:24:47.662Z,94570.28
2023-03-20T12:30:04.608Z,94560.31
2023-03-20T12:35:20.051Z,94551.47
2023-03-20T12:40:29.761Z,94548.72
2023-03-20T12:45:44.199Z,94536.50
2023-03-20T12:51:10.313Z,94530.28
2023-03-20T12:56:43.010Z,94514.28
2023-03-20T13:01:57.779Z,94508.19
2023-03-20T13:07:07.652Z,94499.84
2023-03-20T13:12:41.103Z,94486.22
2023-03-20T13:17:52.209Z,94484.59
2023-03-20T13:23:10.918Z,94471.34
2023-03-20T13:28:16.227Z,94474.38
2023-03-20T13:33:36.449Z,94459.44
2023-03-20T13:38:43.672Z,94456.56
2023-03-20T13:43:45.665Z,94452.88
2023-03-20T13:48:47.728Z,94444.84
2023-03-20T13:54:27.047Z,94445.97
2023-03-20T13:59:42.910Z,94436.78
2023-03-20T14:04:45.261Z,94428.59
2023-03-20T14:09:47.463Z,94422.09
2023-03-20T14:14:57.101Z,94416.00
2023-03-20T14:20:12.171Z,94403.13
2023-03-20T14:25:19.031Z,94404.38
2023-03-20T14:30:30.226Z,94404.50
2023-03-20T14:35:37.555Z,94394.06
2023-03-20T14:40:48.261Z,94395.59
2023-03-20T14:46:35.586Z,94393.38
2023-03-20T14:51:44.585Z,94385.53
2023-03-20T14:56:51.225Z,94392.63
2023-03-20T15:01:57.978Z,94392.66
2023-03-20T15:07:15.325Z,94377.59
2023-03-20T15:12:21.471Z,94369.53
2023-03-20T15:17:27.552Z,94370.31
2023-03-20T15:22:29.621Z,94362.50
2023-03-20T15:27:32.227Z,94358.91
2023-03-20T15:32:35.232Z,94352.22
2023-03-20T15:37:37.323Z,94354.31
2023-03-20T15:42:39.314Z,94340.34
2023-03-20T15:47:42.956Z,94339.72
2023-03-20T15:52:53.370Z,94342.69
2023-03-20T15:58:00.410Z,94330.22
2023-03-20T16:03:05.094Z,94324.91
2023-03-20T16:08:25.836Z,94324.13
2023-03-20T16:13:51.071Z,94321.75
2023-03-20T16:18:53.529Z,94318.69
2023-03-20T16:23:58.089Z,94309.00
2023-03-20T16:29:02.788Z,94313.97
2023-03-20T16:34:07.522Z,94302.00
2023-03-20T16:39:16.174Z,94306.97
2023-03-20T16:44:20.125Z,94313.91
2023-03-20T16:49:32.268Z,94315.38
2023-03-20T16:54:37.126Z,94299.50
2023-03-20T16:59:39.956Z,94308.28
2023-03-20T17:04:50.205Z,94304.72
2023-03-20T17:09:59.546Z,94302.03
2023-03-20T17:15:01.895Z,94306.97
2023-03-20T17:20:04.231Z,94309.91
2023-03-20T17:25:06.774Z,94311.25
2023-03-20T17:30:22.910Z,94306.59
2023-03-20T17:35:25.017Z,94309.31
2023-03-20T17:40:27.163Z,94309.09
2023-03-20T17:45:29.552Z,94304.66
2023-03-20T17:50:31.713Z,94302.22
2023-03-20T17:55:33.623Z,94311.75
2023-03-20T18:00:36.127Z,94319.09
2023-03-20T18:05:39.774Z,94324.31
2023-03-20T18:10:42.450Z,94324.84
2023-03-20T18:15:45.412Z,94320.41
2023-03-20T18:20:47.901Z,94320.63
2023-03-20T18:25:49.914Z,94334.00
2023-03-20T18:30:51.911Z,94337.50
2023-03-20T18:35:54.952Z,94339.53
2023-03-20T18:40:57.184Z,94337.72
2023-03-20T18:45:59.416Z,94330.16
2023-03-20T18:51:02.663Z,94338.38
2023-03-20T18:56:05.590Z,94343.16
2023-03-20T19:01:07.791Z,94336.78
2023-03-20T19:06:21.055Z,94343.59
2023-03-20T19:11:23.190Z,94344.13
2023-03-20T19:16:27.673Z,94351.53
2023-03-20T19:21:33.189Z,94353.56
2023-03-20T19:26:36.868Z,94350.03
2023-03-20T19:31:38.948Z,94355.25
2023-03-20T19:36:41.578Z,94355.44
2023-03-20T19:41:47.156Z,94355.97
2023-03-20T19:46:49.837Z,94353.91
2023-03-20T19:51:51.821Z,94351.03
2023-03-20T19:56:53.798Z,94368.41
2023-03-20T20:01:55.911Z,94363.88
2023-03-20T20:07:30.248Z,94365.19
2023-03-20T20:12:20.127Z,94364.19
2023-03-20T20:17:22.163Z,94359.44
2023-03-20T20:22:26.447Z,94361.59
2023-03-20T20:27:29.492Z,94348.50
2023-03-20T20:32:32.450Z,94357.75
2023-03-20T20:38:27.184Z,94359.91
2023-03-20T20:43:10.042Z,94357.81
2023-03-20T20:48:12.701Z,94359.81
2023-03-20T20:53:15.541Z,94371.94
2023-03-20T20:58:17.906Z,94357.25
2023-03-20T21:03:19.923Z,94359.22
2023-03-20T21:08:22.465Z,94352.56
2023-03-20T21:13:24.603Z,94355.31
2023-03-20T21:18:26.836Z,94357.50
2023-03-20T21:23:28.860Z,94352.91
2023-03-20T21:28:31.038Z,94363.13
2023-03-20T21:33:34.584Z,94365.03
2023-03-20T21:39:05.979Z,94368.84
2023-03-20T21:44:01.426Z,94359.81
2023-03-20T21:55:03.999Z,94365.69
2023-03-20T22:00:31.683Z,94370.94
2023-03-20T22:11:36.054Z,94369.22
2023-03-20T22:27:35.210Z,94366.47
2023-03-20T22:43:09.567Z,94359.59
2023-03-20T22:48:12.828Z,94357.41
2023-03-20T22:53:15.632Z,94373.50
2023-03-20T22:58:17.716Z,94380.31
2023-03-20T23:03:37.788Z,94376.28
2023-03-20T23:08:49.135Z,94363.03
2023-03-20T23:13:54.191Z,94364.13
2023-03-20T23:18:56.923Z,94356.66
2023-03-20T23:23:58.967Z,94364.25
2023-03-20T23:29:03.567Z,94357.53
2023-03-20T23:34:05.926Z,94362.72
2023-03-20T23:39:09.716Z,94355.75
2023-03-20T23:44:11.793Z,94359.34
2023-03-20T23:49:13.698Z,94351.41
2023-03-20T23:54:16.096Z,94368.03
2023-03-20T23:59:22.251Z,94353.88
